sensor_id;sensor_type;location;lat;lon;timestamp;P1;durP1;ratioP1;P2;durP2;ratioP2
54263;SDS011;40178;53.042;6.406;2023-08-08T00:02:14;4.15;;;2.05;;
54263;SDS011;40178;53.042;6.406;2023-08-08T00:04:39;7.65;;;2.38;;
54263;SDS011;40178;53.042;6.406;2023-08-08T00:07:05;5.28;;;1.80;;
54263;SDS011;40178;53.042;6.406;2023-08-08T00:09:31;6.10;;;2.42;;
54263;SDS011;40178;53.042;6.406;2023-08-08T00:11:57;5.80;;;2.25;;
54263;SDS011;40178;53.042;6.406;2023-08-08T00:14:23;6.85;;;2.55;;
54263;SDS011;40178;53.042;6.406;2023-08-08T00:16:49;8.32;;;2.70;;
54263;SDS011;40178;53.042;6.406;2023-08-08T00:19:14;7.53;;;1.90;;
54263;SDS011;40178;53.042;6.406;2023-08-08T00:21:40;5.45;;;2.58;;
54263;SDS011;40178;53.042;6.406;2023-08-08T00:24:05;8.05;;;2.63;;
54263;SDS011;40178;53.042;6.406;2023-08-08T00:26:31;7.65;;;2.65;;
54263;SDS011;40178;53.042;6.406;2023-08-08T00:28:57;4.75;;;2.10;;
54263;SDS011;40178;53.042;6.406;2023-08-08T00:31:22;6.28;;;2.90;;
54263;SDS011;40178;53.042;6.406;2023-08-08T00:33:48;7.78;;;2.78;;
54263;SDS011;40178;53.042;6.406;2023-08-08T00:36:13;6.68;;;2.60;;
54263;SDS011;40178;53.042;6.406;2023-08-08T00:38:39;6.03;;;2.65;;
54263;SDS011;40178;53.042;6.406;2023-08-08T00:41:05;8.95;;;3.40;;
54263;SDS011;40178;53.042;6.406;2023-08-08T00:43:30;9.13;;;2.63;;
54263;SDS011;40178;53.042;6.406;2023-08-08T00:45:56;5.93;;;2.70;;
54263;SDS011;40178;53.042;6.406;2023-08-08T00:48:22;7.72;;;2.53;;
54263;SDS011;40178;53.042;6.406;2023-08-08T00:50:48;7.05;;;2.50;;
54263;SDS011;40178;53.042;6.406;2023-08-08T00:53:15;6.43;;;2.80;;
54263;SDS011;40178;53.042;6.406;2023-08-08T00:55:42;9.27;;;2.63;;
54263;SDS011;40178;53.042;6.406;2023-08-08T00:58:08;6.07;;;2.67;;
54263;SDS011;40178;53.042;6.406;2023-08-08T01:00:33;5.13;;;2.50;;
54263;SDS011;40178;53.042;6.406;2023-08-08T01:02:59;9.27;;;3.30;;
54263;SDS011;40178;53.042;6.406;2023-08-08T01:05:25;5.38;;;2.40;;
54263;SDS011;40178;53.042;6.406;2023-08-08T01:08:07;7.15;;;2.35;;
54263;SDS011;40178;53.042;6.406;2023-08-08T01:10:37;7.05;;;3.67;;
54263;SDS011;40178;53.042;6.406;2023-08-08T01:13:13;11.07;;;3.00;;
54263;SDS011;40178;53.042;6.406;2023-08-08T01:15:45;5.85;;;2.55;;
54263;SDS011;40178;53.042;6.406;2023-08-08T01:18:13;9.52;;;2.70;;
54263;SDS011;40178;53.042;6.406;2023-08-08T01:20:39;5.78;;;2.40;;
54263;SDS011;40178;53.042;6.406;2023-08-08T01:23:11;4.72;;;2.67;;
54263;SDS011;40178;53.042;6.406;2023-08-08T01:25:41;6.93;;;2.47;;
54263;SDS011;40178;53.042;6.406;2023-08-08T01:28:07;5.57;;;2.35;;
54263;SDS011;40178;53.042;6.406;2023-08-08T01:30:33;5.22;;;2.50;;
54263;SDS011;40178;53.042;6.406;2023-08-08T01:32:59;6.78;;;2.65;;
54263;SDS011;40178;53.042;6.406;2023-08-08T01:35:26;6.55;;;2.22;;
54263;SDS011;40178;53.042;6.406;2023-08-08T01:38:00;6.85;;;3.03;;
54263;SDS011;40178;53.042;6.406;2023-08-08T01:40:33;6.53;;;3.22;;
54263;SDS011;40178;53.042;6.406;2023-08-08T01:43:01;6.35;;;2.75;;
54263;SDS011;40178;53.042;6.406;2023-08-08T01:45:29;5.97;;;2.55;;
54263;SDS011;40178;53.042;6.406;2023-08-08T01:47:54;8.23;;;3.05;;
54263;SDS011;40178;53.042;6.406;2023-08-08T01:50:20;6.55;;;3.00;;
54263;SDS011;40178;53.042;6.406;2023-08-08T01:52:46;5.45;;;2.30;;
54263;SDS011;40178;53.042;6.406;2023-08-08T01:55:12;7.93;;;2.78;;
54263;SDS011;40178;53.042;6.406;2023-08-08T01:57:38;7.63;;;2.55;;
54263;SDS011;40178;53.042;6.406;2023-08-08T02:00:04;7.30;;;2.85;;
54263;SDS011;40178;53.042;6.406;2023-08-08T02:02:31;7.97;;;2.50;;
54263;SDS011;40178;53.042;6.406;2023-08-08T02:04:57;5.55;;;2.72;;
54263;SDS011;40178;53.042;6.406;2023-08-08T02:07:23;6.60;;;2.90;;
54263;SDS011;40178;53.042;6.406;2023-08-08T02:09:48;6.43;;;3.40;;
54263;SDS011;40178;53.042;6.406;2023-08-08T02:12:15;6.53;;;2.53;;
54263;SDS011;40178;53.042;6.406;2023-08-08T02:14:41;7.43;;;2.85;;
54263;SDS011;40178;53.042;6.406;2023-08-08T02:17:07;6.15;;;2.83;;
54263;SDS011;40178;53.042;6.406;2023-08-08T02:19:33;6.47;;;3.10;;
54263;SDS011;40178;53.042;6.406;2023-08-08T02:21:58;7.97;;;3.10;;
54263;SDS011;40178;53.042;6.406;2023-08-08T02:24:24;8.13;;;3.33;;
54263;SDS011;40178;53.042;6.406;2023-08-08T02:26:49;8.32;;;3.05;;
54263;SDS011;40178;53.042;6.406;2023-08-08T02:29:15;8.18;;;3.28;;
54263;SDS011;40178;53.042;6.406;2023-08-08T02:31:41;7.50;;;3.85;;
54263;SDS011;40178;53.042;6.406;2023-08-08T02:34:06;5.82;;;2.72;;
54263;SDS011;40178;53.042;6.406;2023-08-08T02:36:32;9.52;;;3.30;;
54263;SDS011;40178;53.042;6.406;2023-08-08T02:38:58;6.97;;;3.75;;
54263;SDS011;40178;53.042;6.406;2023-08-08T02:41:24;8.75;;;3.55;;
54263;SDS011;40178;53.042;6.406;2023-08-08T02:43:49;8.43;;;2.97;;
54263;SDS011;40178;53.042;6.406;2023-08-08T02:46:15;6.60;;;3.33;;
54263;SDS011;40178;53.042;6.406;2023-08-08T02:48:40;6.88;;;3.13;;
54263;SDS011;40178;53.042;6.406;2023-08-08T02:51:06;6.53;;;3.20;;
54263;SDS011;40178;53.042;6.406;2023-08-08T02:53:32;7.38;;;2.97;;
54263;SDS011;40178;53.042;6.406;2023-08-08T02:55:57;7.35;;;3.42;;
54263;SDS011;40178;53.042;6.406;2023-08-08T02:58:23;8.13;;;2.97;;
54263;SDS011;40178;53.042;6.406;2023-08-08T03:00:48;6.30;;;3.08;;
54263;SDS011;40178;53.042;6.406;2023-08-08T03:03:14;8.27;;;3.05;;
54263;SDS011;40178;53.042;6.406;2023-08-08T03:05:40;10.50;;;2.70;;
54263;SDS011;40178;53.042;6.406;2023-08-08T03:08:05;8.75;;;2.72;;
54263;SDS011;40178;53.042;6.406;2023-08-08T03:10:31;8.10;;;2.88;;
54263;SDS011;40178;53.042;6.406;2023-08-08T03:12:57;7.15;;;2.50;;
54263;SDS011;40178;53.042;6.406;2023-08-08T03:15:22;7.15;;;2.70;;
54263;SDS011;40178;53.042;6.406;2023-08-08T03:17:48;8.48;;;2.58;;
54263;SDS011;40178;53.042;6.406;2023-08-08T03:20:14;6.68;;;2.30;;
54263;SDS011;40178;53.042;6.406;2023-08-08T03:22:40;6.93;;;2.10;;
54263;SDS011;40178;53.042;6.406;2023-08-08T03:25:05;5.85;;;2.22;;
54263;SDS011;40178;53.042;6.406;2023-08-08T03:27:32;5.72;;;2.25;;
54263;SDS011;40178;53.042;6.406;2023-08-08T03:29:57;7.38;;;2.20;;
54263;SDS011;40178;53.042;6.406;2023-08-08T03:32:23;7.65;;;3.42;;
54263;SDS011;40178;53.042;6.406;2023-08-08T03:34:49;8.35;;;2.67;;
54263;SDS011;40178;53.042;6.406;2023-08-08T03:37:14;7.97;;;2.75;;
54263;SDS011;40178;53.042;6.406;2023-08-08T03:39:40;6.18;;;2.35;;
54263;SDS011;40178;53.042;6.406;2023-08-08T03:42:06;8.32;;;2.80;;
54263;SDS011;40178;53.042;6.406;2023-08-08T03:44:31;6.25;;;2.83;;
54263;SDS011;40178;53.042;6.406;2023-08-08T03:46:57;8.95;;;3.25;;
54263;SDS011;40178;53.042;6.406;2023-08-08T03:49:23;6.97;;;2.58;;
54263;SDS011;40178;53.042;6.406;2023-08-08T03:51:48;7.10;;;2.40;;
54263;SDS011;40178;53.042;6.406;2023-08-08T03:54:14;8.20;;;2.75;;
54263;SDS011;40178;53.042;6.406;2023-08-08T03:56:40;8.90;;;2.47;;
54263;SDS011;40178;53.042;6.406;2023-08-08T03:59:06;5.43;;;2.17;;
54263;SDS011;40178;53.042;6.406;2023-08-08T04:01:31;7.90;;;2.35;;
54263;SDS011;40178;53.042;6.406;2023-08-08T04:03:58;9.45;;;2.38;;
54263;SDS011;40178;53.042;6.406;2023-08-08T04:06:23;6.30;;;2.05;;
54263;SDS011;40178;53.042;6.406;2023-08-08T04:08:49;9.77;;;2.08;;
54263;SDS011;40178;53.042;6.406;2023-08-08T04:11:15;6.80;;;2.50;;
54263;SDS011;40178;53.042;6.406;2023-08-08T04:13:41;6.93;;;2.40;;
54263;SDS011;40178;53.042;6.406;2023-08-08T04:16:07;7.13;;;1.85;;
54263;SDS011;40178;53.042;6.406;2023-08-08T04:18:33;10.68;;;2.17;;
54263;SDS011;40178;53.042;6.406;2023-08-08T04:20:58;7.47;;;1.92;;
54263;SDS011;40178;53.042;6.406;2023-08-08T04:23:24;8.40;;;2.10;;
54263;SDS011;40178;53.042;6.406;2023-08-08T04:25:51;9.00;;;2.33;;
54263;SDS011;40178;53.042;6.406;2023-08-08T04:28:17;10.23;;;3.35;;
54263;SDS011;40178;53.042;6.406;2023-08-08T04:30:43;6.57;;;2.25;;
54263;SDS011;40178;53.042;6.406;2023-08-08T04:33:08;5.90;;;2.03;;
54263;SDS011;40178;53.042;6.406;2023-08-08T04:35:34;6.68;;;1.85;;
54263;SDS011;40178;53.042;6.406;2023-08-08T04:38:00;6.22;;;1.90;;
54263;SDS011;40178;53.042;6.406;2023-08-08T04:40:26;6.47;;;1.98;;
54263;SDS011;40178;53.042;6.406;2023-08-08T04:42:51;8.48;;;2.63;;
54263;SDS011;40178;53.042;6.406;2023-08-08T04:45:17;4.18;;;2.10;;
54263;SDS011;40178;53.042;6.406;2023-08-08T04:47:43;6.13;;;2.00;;
54263;SDS011;40178;53.042;6.406;2023-08-08T04:50:09;5.75;;;1.73;;
54263;SDS011;40178;53.042;6.406;2023-08-08T04:52:35;4.75;;;1.80;;
54263;SDS011;40178;53.042;6.406;2023-08-08T04:55:01;8.95;;;1.98;;
54263;SDS011;40178;53.042;6.406;2023-08-08T04:57:27;5.30;;;1.80;;
54263;SDS011;40178;53.042;6.406;2023-08-08T04:59:52;4.80;;;1.90;;
54263;SDS011;40178;53.042;6.406;2023-08-08T05:02:18;7.90;;;2.08;;
54263;SDS011;40178;53.042;6.406;2023-08-08T05:04:43;8.38;;;2.33;;
54263;SDS011;40178;53.042;6.406;2023-08-08T05:07:09;9.10;;;1.83;;
54263;SDS011;40178;53.042;6.406;2023-08-08T05:09:35;8.70;;;2.28;;
54263;SDS011;40178;53.042;6.406;2023-08-08T05:12:00;7.38;;;2.35;;
54263;SDS011;40178;53.042;6.406;2023-08-08T05:14:27;7.15;;;2.00;;
54263;SDS011;40178;53.042;6.406;2023-08-08T05:16:52;6.38;;;1.92;;
54263;SDS011;40178;53.042;6.406;2023-08-08T05:19:18;12.40;;;1.80;;
54263;SDS011;40178;53.042;6.406;2023-08-08T05:21:43;10.85;;;2.67;;
54263;SDS011;40178;53.042;6.406;2023-08-08T05:24:09;6.95;;;2.03;;
54263;SDS011;40178;53.042;6.406;2023-08-08T05:26:35;6.35;;;1.67;;
54263;SDS011;40178;53.042;6.406;2023-08-08T05:29:00;5.28;;;1.60;;
54263;SDS011;40178;53.042;6.406;2023-08-08T05:31:26;4.53;;;1.23;;
54263;SDS011;40178;53.042;6.406;2023-08-08T05:33:51;3.40;;;1.15;;
54263;SDS011;40178;53.042;6.406;2023-08-08T05:36:17;4.80;;;1.70;;
54263;SDS011;40178;53.042;6.406;2023-08-08T05:38:43;6.30;;;1.52;;
54263;SDS011;40178;53.042;6.406;2023-08-08T05:41:08;6.22;;;1.60;;
54263;SDS011;40178;53.042;6.406;2023-08-08T05:43:34;6.68;;;1.42;;
54263;SDS011;40178;53.042;6.406;2023-08-08T05:46:00;5.20;;;1.55;;
54263;SDS011;40178;53.042;6.406;2023-08-08T05:48:26;6.85;;;1.75;;
54263;SDS011;40178;53.042;6.406;2023-08-08T05:50:51;7.32;;;1.42;;
54263;SDS011;40178;53.042;6.406;2023-08-08T05:53:17;6.10;;;1.38;;
54263;SDS011;40178;53.042;6.406;2023-08-08T05:55:43;6.60;;;1.67;;
54263;SDS011;40178;53.042;6.406;2023-08-08T05:58:09;5.38;;;1.38;;
54263;SDS011;40178;53.042;6.406;2023-08-08T06:00:35;3.97;;;1.23;;
54263;SDS011;40178;53.042;6.406;2023-08-08T06:03:01;6.35;;;1.60;;
54263;SDS011;40178;53.042;6.406;2023-08-08T06:05:26;4.18;;;1.25;;
54263;SDS011;40178;53.042;6.406;2023-08-08T06:07:53;4.65;;;1.50;;
54263;SDS011;40178;53.042;6.406;2023-08-08T06:10:20;8.32;;;1.52;;
54263;SDS011;40178;53.042;6.406;2023-08-08T06:12:46;4.18;;;1.50;;
54263;SDS011;40178;53.042;6.406;2023-08-08T06:15:11;4.25;;;1.30;;
54263;SDS011;40178;53.042;6.406;2023-08-08T06:17:37;7.00;;;1.45;;
54263;SDS011;40178;53.042;6.406;2023-08-08T06:20:03;4.45;;;1.10;;
54263;SDS011;40178;53.042;6.406;2023-08-08T06:22:31;5.25;;;1.33;;
54263;SDS011;40178;53.042;6.406;2023-08-08T06:24:57;5.35;;;1.20;;
54263;SDS011;40178;53.042;6.406;2023-08-08T06:27:23;6.15;;;1.25;;
54263;SDS011;40178;53.042;6.406;2023-08-08T06:29:48;3.92;;;1.15;;
54263;SDS011;40178;53.042;6.406;2023-08-08T06:32:14;5.22;;;0.90;;
54263;SDS011;40178;53.042;6.406;2023-08-08T06:34:39;3.03;;;1.05;;
54263;SDS011;40178;53.042;6.406;2023-08-08T06:37:05;5.40;;;1.20;;
54263;SDS011;40178;53.042;6.406;2023-08-08T06:39:30;5.70;;;1.02;;
54263;SDS011;40178;53.042;6.406;2023-08-08T06:41:56;3.08;;;0.80;;
54263;SDS011;40178;53.042;6.406;2023-08-08T06:44:22;2.55;;;0.82;;
54263;SDS011;40178;53.042;6.406;2023-08-08T06:46:48;5.38;;;0.80;;
54263;SDS011;40178;53.042;6.406;2023-08-08T06:49:13;4.50;;;1.27;;
54263;SDS011;40178;53.042;6.406;2023-08-08T06:51:39;4.05;;;0.85;;
54263;SDS011;40178;53.042;6.406;2023-08-08T06:54:05;6.22;;;2.00;;
54263;SDS011;40178;53.042;6.406;2023-08-08T06:56:31;3.83;;;1.05;;
54263;SDS011;40178;53.042;6.406;2023-08-08T06:58:56;3.85;;;1.13;;
54263;SDS011;40178;53.042;6.406;2023-08-08T07:01:22;5.70;;;0.90;;
54263;SDS011;40178;53.042;6.406;2023-08-08T07:03:48;3.90;;;0.80;;
54263;SDS011;40178;53.042;6.406;2023-08-08T07:06:16;7.80;;;0.88;;
54263;SDS011;40178;53.042;6.406;2023-08-08T07:08:43;3.78;;;0.88;;
54263;SDS011;40178;53.042;6.406;2023-08-08T07:11:08;2.17;;;0.45;;
54263;SDS011;40178;53.042;6.406;2023-08-08T07:13:34;4.68;;;0.70;;
54263;SDS011;40178;53.042;6.406;2023-08-08T07:15:59;4.80;;;1.42;;
54263;SDS011;40178;53.042;6.406;2023-08-08T07:18:25;4.10;;;0.85;;
54263;SDS011;40178;53.042;6.406;2023-08-08T07:20:51;5.03;;;0.88;;
54263;SDS011;40178;53.042;6.406;2023-08-08T07:23:16;3.28;;;0.88;;
54263;SDS011;40178;53.042;6.406;2023-08-08T07:25:43;2.45;;;0.98;;
54263;SDS011;40178;53.042;6.406;2023-08-08T07:28:08;4.10;;;0.80;;
54263;SDS011;40178;53.042;6.406;2023-08-08T07:30:34;3.90;;;0.85;;
54263;SDS011;40178;53.042;6.406;2023-08-08T07:33:00;4.32;;;0.93;;
54263;SDS011;40178;53.042;6.406;2023-08-08T07:35:26;4.80;;;1.05;;
54263;SDS011;40178;53.042;6.406;2023-08-08T07:37:52;4.75;;;1.00;;
54263;SDS011;40178;53.042;6.406;2023-08-08T07:40:18;2.70;;;0.82;;
54263;SDS011;40178;53.042;6.406;2023-08-08T07:42:45;2.85;;;0.90;;
54263;SDS011;40178;53.042;6.406;2023-08-08T07:45:14;3.33;;;0.80;;
54263;SDS011;40178;53.042;6.406;2023-08-08T07:47:40;4.05;;;1.30;;
54263;SDS011;40178;53.042;6.406;2023-08-08T07:50:06;4.95;;;1.10;;
54263;SDS011;40178;53.042;6.406;2023-08-08T07:52:35;3.53;;;1.10;;
54263;SDS011;40178;53.042;6.406;2023-08-08T07:55:01;4.25;;;1.17;;
54263;SDS011;40178;53.042;6.406;2023-08-08T07:57:28;3.67;;;1.55;;
54263;SDS011;40178;53.042;6.406;2023-08-08T07:59:55;4.60;;;1.33;;
54263;SDS011;40178;53.042;6.406;2023-08-08T08:02:21;5.53;;;1.45;;
54263;SDS011;40178;53.042;6.406;2023-08-08T08:04:46;3.38;;;1.05;;
54263;SDS011;40178;53.042;6.406;2023-08-08T08:07:12;4.00;;;1.30;;
54263;SDS011;40178;53.042;6.406;2023-08-08T08:09:38;4.70;;;0.98;;
54263;SDS011;40178;53.042;6.406;2023-08-08T08:12:04;3.25;;;1.15;;
54263;SDS011;40178;53.042;6.406;2023-08-08T08:14:30;3.83;;;0.70;;
54263;SDS011;40178;53.042;6.406;2023-08-08T08:16:55;2.70;;;0.88;;
54263;SDS011;40178;53.042;6.406;2023-08-08T08:19:21;3.03;;;0.68;;
54263;SDS011;40178;53.042;6.406;2023-08-08T08:21:47;5.03;;;1.20;;
54263;SDS011;40178;53.042;6.406;2023-08-08T08:24:12;7.75;;;1.10;;
54263;SDS011;40178;53.042;6.406;2023-08-08T08:26:38;10.77;;;1.33;;
54263;SDS011;40178;53.042;6.406;2023-08-08T08:29:03;4.00;;;0.95;;
54263;SDS011;40178;53.042;6.406;2023-08-08T08:31:29;3.83;;;0.90;;
54263;SDS011;40178;53.042;6.406;2023-08-08T08:33:55;3.88;;;0.90;;
54263;SDS011;40178;53.042;6.406;2023-08-08T08:36:20;3.42;;;0.85;;
54263;SDS011;40178;53.042;6.406;2023-08-08T08:38:46;6.55;;;1.50;;
54263;SDS011;40178;53.042;6.406;2023-08-08T08:41:14;3.60;;;0.90;;
54263;SDS011;40178;53.042;6.406;2023-08-08T08:43:42;4.25;;;1.00;;
54263;SDS011;40178;53.042;6.406;2023-08-08T08:46:08;4.72;;;1.20;;
54263;SDS011;40178;53.042;6.406;2023-08-08T08:48:36;3.88;;;0.90;;
54263;SDS011;40178;53.042;6.406;2023-08-08T08:51:02;5.57;;;1.13;;
54263;SDS011;40178;53.042;6.406;2023-08-08T08:53:28;6.45;;;1.13;;
54263;SDS011;40178;53.042;6.406;2023-08-08T08:55:56;3.20;;;1.10;;
54263;SDS011;40178;53.042;6.406;2023-08-08T08:58:22;4.30;;;1.10;;
54263;SDS011;40178;53.042;6.406;2023-08-08T09:00:49;3.63;;;1.33;;
54263;SDS011;40178;53.042;6.406;2023-08-08T09:03:17;5.93;;;1.70;;
54263;SDS011;40178;53.042;6.406;2023-08-08T09:05:42;2.50;;;0.90;;
54263;SDS011;40178;53.042;6.406;2023-08-08T09:08:10;5.53;;;1.10;;
54263;SDS011;40178;53.042;6.406;2023-08-08T09:10:37;4.45;;;1.55;;
54263;SDS011;40178;53.042;6.406;2023-08-08T09:13:03;2.00;;;0.70;;
54263;SDS011;40178;53.042;6.406;2023-08-08T09:15:30;2.92;;;1.10;;
54263;SDS011;40178;53.042;6.406;2023-08-08T09:17:57;2.78;;;1.05;;
54263;SDS011;40178;53.042;6.406;2023-08-08T09:20:22;6.15;;;1.13;;
54263;SDS011;40178;53.042;6.406;2023-08-08T09:22:51;4.75;;;1.45;;
54263;SDS011;40178;53.042;6.406;2023-08-08T09:25:17;7.13;;;2.10;;
54263;SDS011;40178;53.042;6.406;2023-08-08T09:27:43;4.65;;;0.90;;
54263;SDS011;40178;53.042;6.406;2023-08-08T09:30:10;3.35;;;1.20;;
54263;SDS011;40178;53.042;6.406;2023-08-08T09:32:36;4.30;;;0.77;;
54263;SDS011;40178;53.042;6.406;2023-08-08T09:35:02;3.00;;;0.90;;
54263;SDS011;40178;53.042;6.406;2023-08-08T09:37:28;5.13;;;1.27;;
54263;SDS011;40178;53.042;6.406;2023-08-08T09:40:01;8.63;;;1.30;;
54263;SDS011;40178;53.042;6.406;2023-08-08T09:42:30;5.32;;;1.08;;
54263;SDS011;40178;53.042;6.406;2023-08-08T09:44:56;5.03;;;1.30;;
54263;SDS011;40178;53.042;6.406;2023-08-08T09:47:23;5.30;;;1.30;;
54263;SDS011;40178;53.042;6.406;2023-08-08T09:49:49;5.47;;;1.33;;
54263;SDS011;40178;53.042;6.406;2023-08-08T09:52:16;3.90;;;1.13;;
54263;SDS011;40178;53.042;6.406;2023-08-08T09:54:42;5.43;;;1.30;;
54263;SDS011;40178;53.042;6.406;2023-08-08T09:57:08;4.35;;;1.17;;
54263;SDS011;40178;53.042;6.406;2023-08-08T09:59:34;7.93;;;1.60;;
54263;SDS011;40178;53.042;6.406;2023-08-08T10:02:00;3.45;;;1.17;;
54263;SDS011;40178;53.042;6.406;2023-08-08T10:04:26;3.45;;;1.45;;
54263;SDS011;40178;53.042;6.406;2023-08-08T10:06:52;5.78;;;1.00;;
54263;SDS011;40178;53.042;6.406;2023-08-08T10:09:18;5.93;;;1.50;;
54263;SDS011;40178;53.042;6.406;2023-08-08T10:11:45;8.38;;;1.38;;
54263;SDS011;40178;53.042;6.406;2023-08-08T10:14:12;5.07;;;1.52;;
54263;SDS011;40178;53.042;6.406;2023-08-08T10:16:41;5.10;;;1.30;;
54263;SDS011;40178;53.042;6.406;2023-08-08T10:19:09;5.43;;;1.38;;
54263;SDS011;40178;53.042;6.406;2023-08-08T10:21:36;5.90;;;1.20;;
54263;SDS011;40178;53.042;6.406;2023-08-08T10:24:06;6.00;;;1.33;;
54263;SDS011;40178;53.042;6.406;2023-08-08T10:26:33;4.82;;;1.50;;
54263;SDS011;40178;53.042;6.406;2023-08-08T10:28:59;5.88;;;1.20;;
54263;SDS011;40178;53.042;6.406;2023-08-08T10:31:26;3.20;;;1.30;;
54263;SDS011;40178;53.042;6.406;2023-08-08T10:34:05;3.50;;;1.10;;
54263;SDS011;40178;53.042;6.406;2023-08-08T10:36:45;6.55;;;1.40;;
54263;SDS011;40178;53.042;6.406;2023-08-08T10:39:18;4.15;;;1.00;;
54263;SDS011;40178;53.042;6.406;2023-08-08T10:41:49;4.55;;;1.20;;
54263;SDS011;40178;53.042;6.406;2023-08-08T10:44:22;8.15;;;1.83;;
54263;SDS011;40178;53.042;6.406;2023-08-08T10:46:49;2.80;;;1.02;;
54263;SDS011;40178;53.042;6.406;2023-08-08T10:49:16;4.22;;;1.10;;
54263;SDS011;40178;53.042;6.406;2023-08-08T10:51:43;4.90;;;1.00;;
54263;SDS011;40178;53.042;6.406;2023-08-08T10:54:30;2.70;;;0.93;;
54263;SDS011;40178;53.042;6.406;2023-08-08T10:56:58;4.72;;;1.23;;
54263;SDS011;40178;53.042;6.406;2023-08-08T11:01:51;7.30;;;1.23;;
54263;SDS011;40178;53.042;6.406;2023-08-08T11:04:23;4.13;;;1.25;;
54263;SDS011;40178;53.042;6.406;2023-08-08T11:06:52;4.50;;;1.17;;
54263;SDS011;40178;53.042;6.406;2023-08-08T11:09:19;3.72;;;0.95;;
54263;SDS011;40178;53.042;6.406;2023-08-08T11:11:45;4.15;;;1.23;;
54263;SDS011;40178;53.042;6.406;2023-08-08T11:14:14;4.78;;;0.90;;
54263;SDS011;40178;53.042;6.406;2023-08-08T11:16:42;6.88;;;1.00;;
54263;SDS011;40178;53.042;6.406;2023-08-08T11:19:08;4.60;;;0.98;;
54263;SDS011;40178;53.042;6.406;2023-08-08T11:21:35;3.80;;;0.88;;
54263;SDS011;40178;53.042;6.406;2023-08-08T11:24:02;6.18;;;0.80;;
54263;SDS011;40178;53.042;6.406;2023-08-08T11:26:29;3.90;;;0.70;;
54263;SDS011;40178;53.042;6.406;2023-08-08T11:28:57;3.53;;;0.60;;
54263;SDS011;40178;53.042;6.406;2023-08-08T11:31:24;5.03;;;0.70;;
54263;SDS011;40178;53.042;6.406;2023-08-08T11:33:50;3.20;;;0.70;;
54263;SDS011;40178;53.042;6.406;2023-08-08T11:36:17;2.88;;;0.80;;
54263;SDS011;40178;53.042;6.406;2023-08-08T11:38:43;2.60;;;0.77;;
54263;SDS011;40178;53.042;6.406;2023-08-08T11:41:10;3.30;;;0.60;;
54263;SDS011;40178;53.042;6.406;2023-08-08T11:43:38;3.08;;;0.55;;
54263;SDS011;40178;53.042;6.406;2023-08-08T11:46:04;4.75;;;0.80;;
54263;SDS011;40178;53.042;6.406;2023-08-08T11:48:33;2.92;;;0.52;;
54263;SDS011;40178;53.042;6.406;2023-08-08T11:50:59;4.07;;;0.55;;
54263;SDS011;40178;53.042;6.406;2023-08-08T11:53:24;2.60;;;0.50;;
54263;SDS011;40178;53.042;6.406;2023-08-08T11:55:50;3.50;;;0.75;;
54263;SDS011;40178;53.042;6.406;2023-08-08T11:58:16;1.50;;;0.40;;
54263;SDS011;40178;53.042;6.406;2023-08-08T12:00:42;2.63;;;0.45;;
54263;SDS011;40178;53.042;6.406;2023-08-08T12:03:11;3.38;;;0.40;;
54263;SDS011;40178;53.042;6.406;2023-08-08T12:05:39;4.63;;;0.60;;
54263;SDS011;40178;53.042;6.406;2023-08-08T12:08:05;4.72;;;1.10;;
54263;SDS011;40178;53.042;6.406;2023-08-08T12:10:31;2.67;;;0.80;;
54263;SDS011;40178;53.042;6.406;2023-08-08T12:12:57;2.13;;;0.43;;
54263;SDS011;40178;53.042;6.406;2023-08-08T12:15:28;4.22;;;0.85;;
54263;SDS011;40178;53.042;6.406;2023-08-08T12:17:58;2.73;;;0.67;;
54263;SDS011;40178;53.042;6.406;2023-08-08T12:20:26;3.45;;;0.70;;
54263;SDS011;40178;53.042;6.406;2023-08-08T12:22:54;4.07;;;0.90;;
54263;SDS011;40178;53.042;6.406;2023-08-08T12:25:19;3.22;;;0.80;;
54263;SDS011;40178;53.042;6.406;2023-08-08T12:27:45;1.98;;;0.52;;
54263;SDS011;40178;53.042;6.406;2023-08-08T12:30:10;3.65;;;0.60;;
54263;SDS011;40178;53.042;6.406;2023-08-08T12:32:36;4.18;;;0.63;;
54263;SDS011;40178;53.042;6.406;2023-08-08T12:35:02;3.38;;;0.50;;
54263;SDS011;40178;53.042;6.406;2023-08-08T12:37:27;2.47;;;0.40;;
54263;SDS011;40178;53.042;6.406;2023-08-08T12:39:53;3.03;;;0.60;;
54263;SDS011;40178;53.042;6.406;2023-08-08T12:42:19;3.47;;;0.98;;
54263;SDS011;40178;53.042;6.406;2023-08-08T12:44:44;2.42;;;0.45;;
54263;SDS011;40178;53.042;6.406;2023-08-08T12:47:11;3.00;;;0.60;;
54263;SDS011;40178;53.042;6.406;2023-08-08T12:49:37;5.90;;;0.73;;
54263;SDS011;40178;53.042;6.406;2023-08-08T12:52:03;3.70;;;0.50;;
54263;SDS011;40178;53.042;6.406;2023-08-08T12:54:29;4.65;;;0.93;;
54263;SDS011;40178;53.042;6.406;2023-08-08T12:56:54;2.55;;;0.50;;
54263;SDS011;40178;53.042;6.406;2023-08-08T12:59:20;4.05;;;0.50;;
54263;SDS011;40178;53.042;6.406;2023-08-08T13:01:45;2.65;;;0.63;;
54263;SDS011;40178;53.042;6.406;2023-08-08T13:04:11;1.65;;;0.70;;
54263;SDS011;40178;53.042;6.406;2023-08-08T13:06:37;2.70;;;0.50;;
54263;SDS011;40178;53.042;6.406;2023-08-08T13:09:02;2.88;;;0.55;;
54263;SDS011;40178;53.042;6.406;2023-08-08T13:11:28;2.20;;;0.50;;
54263;SDS011;40178;53.042;6.406;2023-08-08T13:13:54;5.65;;;1.00;;
54263;SDS011;40178;53.042;6.406;2023-08-08T13:16:19;3.60;;;0.70;;
54263;SDS011;40178;53.042;6.406;2023-08-08T13:18:45;2.20;;;0.60;;
54263;SDS011;40178;53.042;6.406;2023-08-08T13:21:11;5.03;;;0.60;;
54263;SDS011;40178;53.042;6.406;2023-08-08T13:23:37;3.15;;;1.15;;
54263;SDS011;40178;53.042;6.406;2023-08-08T13:26:03;3.80;;;0.80;;
54263;SDS011;40178;53.042;6.406;2023-08-08T13:28:29;2.40;;;0.63;;
54263;SDS011;40178;53.042;6.406;2023-08-08T13:30:55;4.47;;;0.98;;
54263;SDS011;40178;53.042;6.406;2023-08-08T13:33:21;4.45;;;0.80;;
54263;SDS011;40178;53.042;6.406;2023-08-08T13:35:46;5.38;;;0.60;;
54263;SDS011;40178;53.042;6.406;2023-08-08T13:38:12;5.80;;;0.60;;
54263;SDS011;40178;53.042;6.406;2023-08-08T13:40:40;5.45;;;0.70;;
54263;SDS011;40178;53.042;6.406;2023-08-08T13:43:06;7.57;;;0.85;;
54263;SDS011;40178;53.042;6.406;2023-08-08T13:45:32;6.85;;;1.63;;
54263;SDS011;40178;53.042;6.406;2023-08-08T13:47:58;4.03;;;0.70;;
54263;SDS011;40178;53.042;6.406;2023-08-08T13:50:23;5.55;;;1.00;;
54263;SDS011;40178;53.042;6.406;2023-08-08T13:52:49;2.90;;;0.70;;
54263;SDS011;40178;53.042;6.406;2023-08-08T13:55:14;6.35;;;0.90;;
54263;SDS011;40178;53.042;6.406;2023-08-08T13:57:40;3.95;;;0.90;;
54263;SDS011;40178;53.042;6.406;2023-08-08T14:00:05;4.05;;;1.02;;
54263;SDS011;40178;53.042;6.406;2023-08-08T14:02:35;3.40;;;0.70;;
54263;SDS011;40178;53.042;6.406;2023-08-08T14:05:01;2.92;;;0.50;;
54263;SDS011;40178;53.042;6.406;2023-08-08T14:07:26;2.20;;;0.55;;
54263;SDS011;40178;53.042;6.406;2023-08-08T14:09:52;3.97;;;0.93;;
54263;SDS011;40178;53.042;6.406;2023-08-08T14:12:18;4.72;;;0.70;;
54263;SDS011;40178;53.042;6.406;2023-08-08T14:14:44;5.32;;;0.80;;
54263;SDS011;40178;53.042;6.406;2023-08-08T14:17:09;3.75;;;0.50;;
54263;SDS011;40178;53.042;6.406;2023-08-08T14:19:35;3.33;;;0.50;;
54263;SDS011;40178;53.042;6.406;2023-08-08T14:22:00;3.30;;;0.43;;
54263;SDS011;40178;53.042;6.406;2023-08-08T14:24:26;3.67;;;0.50;;
54263;SDS011;40178;53.042;6.406;2023-08-08T14:26:51;3.85;;;0.55;;
54263;SDS011;40178;53.042;6.406;2023-08-08T14:29:17;3.83;;;0.82;;
54263;SDS011;40178;53.042;6.406;2023-08-08T14:31:43;2.25;;;0.50;;
54263;SDS011;40178;53.042;6.406;2023-08-08T14:34:08;5.07;;;0.70;;
54263;SDS011;40178;53.042;6.406;2023-08-08T14:36:34;6.55;;;0.60;;
54263;SDS011;40178;53.042;6.406;2023-08-08T14:38:59;4.50;;;0.90;;
54263;SDS011;40178;53.042;6.406;2023-08-08T14:41:25;2.45;;;0.50;;
54263;SDS011;40178;53.042;6.406;2023-08-08T14:43:50;4.32;;;0.60;;
54263;SDS011;40178;53.042;6.406;2023-08-08T14:46:16;4.65;;;0.73;;